Main page
METAR-TAF:

METAR-TAF

Airports :

Baghdad International Airport

Baghdad, Iraq

latitude: 33-15-45N, longitude: 44-14-04E, elevation: 35 m

Current weather observation

The report was made 52 minutes ago, at 20:00 UTC
Wind 2 kt from the West/Northwest
Temperature 14°C
Humidity 51%
Pressure 1017 hPa
Visibility 10 km or more
no clouds below 1500 m and no cumulonimbus

METAR: ORBI 212000Z 29002KT CAVOK 14/04 Q1017 NOSIG

Time: 23:52 (20:52 UTC)

Forecast

The report was made 4 hours and 52 minutes ago, at 16:00 UTC
Forecast valid from 21 at 18 UTC to 22 at 18 UTC
Wind 10 kt from the North/Northwest
Visibility: 8000 m

TAF: ORBI 211600Z 2118/2218 33010KT 8000 NSC

Weather observations and forecasts of more than 4000 airports (METAR and TAF reports).

The available stations are represented by yellow and red dots on the map.

Hover mouse over dot to see the name of the station.

Then click to see weather observations and forecasts.

To change the map : click on the green buttons with a black cross to zoom in, on the green button with a dash to zoom out, or on the green arrows for adjacent maps.


METAR-TAF: